createdAt,value
2019-02-21T00:00:07.465Z,12.24
2019-02-21T00:02:36.519Z,12.23
2019-02-21T00:05:05.679Z,12.22
2019-02-21T00:07:34.547Z,12.21
2019-02-21T00:10:03.416Z,12.17
2019-02-21T00:12:32.227Z,12.18
2019-02-21T00:15:01.256Z,12.18
2019-02-21T00:17:30.228Z,12.18
2019-02-21T00:19:58.995Z,12.17
2019-02-21T00:22:28.042Z,12.16
2019-02-21T00:24:58.855Z,12.16
2019-02-21T00:27:29.097Z,12.16
2019-02-21T00:29:58.374Z,12.14
2019-02-21T00:32:27.410Z,12.14
2019-02-21T00:34:56.326Z,12.12
2019-02-21T00:37:25.430Z,12.12
2019-02-21T00:39:54.453Z,12.11
2019-02-21T00:42:23.367Z,12.09
2019-02-21T00:44:52.739Z,12.09
2019-02-21T00:47:21.577Z,12.08
2019-02-21T00:49:50.712Z,12.04
2019-02-21T00:52:19.685Z,12.04
2019-02-21T00:54:48.754Z,12.04
2019-02-21T00:57:17.757Z,12.04
2019-02-21T00:59:46.753Z,12.05
2019-02-21T01:02:15.777Z,12.02
2019-02-21T01:04:50.883Z,12.01
2019-02-21T01:07:19.770Z,12.02
2019-02-21T01:09:48.824Z,12.00
2019-02-21T01:12:18.110Z,12.00
2019-02-21T01:14:47.000Z,11.99
2019-02-21T01:17:15.903Z,12.01
2019-02-21T01:19:45.028Z,12.00
2019-02-21T01:22:13.897Z,12.00
2019-02-21T01:24:42.952Z,11.98
2019-02-21T01:27:11.974Z,11.97
2019-02-21T01:29:40.841Z,11.96
2019-02-21T01:32:09.742Z,11.96
2019-02-21T01:34:38.659Z,11.96
2019-02-21T01:37:07.507Z,11.95
2019-02-21T01:39:36.430Z,11.95
2019-02-21T01:42:05.323Z,11.93
2019-02-21T01:44:34.364Z,11.93
2019-02-21T01:47:03.186Z,11.91
2019-02-21T01:49:32.096Z,11.90
2019-02-21T01:52:01.067Z,11.89
2019-02-21T01:54:30.079Z,11.90
2019-02-21T01:56:58.964Z,11.89
2019-02-21T01:59:27.886Z,11.88
2019-02-21T02:01:57.130Z,11.87
2019-02-21T02:04:26.119Z,11.87
2019-02-21T02:06:55.111Z,11.85
2019-02-21T02:09:25.551Z,11.86
2019-02-21T02:11:53.565Z,11.85
2019-02-21T02:14:21.625Z,11.81
2019-02-21T02:16:49.766Z,11.79
2019-02-21T02:19:17.997Z,11.77
2019-02-21T02:21:46.157Z,11.75
2019-02-21T02:24:14.885Z,11.73
2019-02-21T02:26:43.234Z,11.73
2019-02-21T02:29:11.258Z,11.70
2019-02-21T02:31:39.306Z,11.71
2019-02-21T02:34:07.337Z,11.69
2019-02-21T02:36:35.403Z,11.66
2019-02-21T02:39:04.736Z,11.65
2019-02-21T02:41:32.795Z,11.64
2019-02-21T02:44:00.899Z,11.66
2019-02-21T02:46:28.893Z,11.65
2019-02-21T02:48:56.949Z,11.65
2019-02-21T02:51:24.989Z,11.65
2019-02-21T02:53:53.130Z,11.64
2019-02-21T02:56:21.230Z,11.64
2019-02-21T02:58:49.390Z,11.64
2019-02-21T03:01:17.462Z,11.63
2019-02-21T03:03:45.506Z,11.63
2019-02-21T03:06:13.490Z,11.64
2019-02-21T03:08:41.482Z,11.62
2019-02-21T03:11:09.519Z,11.62
2019-02-21T03:13:37.511Z,11.63
2019-02-21T03:16:05.558Z,11.61
2019-02-21T03:18:33.582Z,11.60
2019-02-21T03:21:01.590Z,11.60
2019-02-21T03:23:29.584Z,11.60
2019-02-21T03:25:57.638Z,11.58
2019-02-21T03:28:25.612Z,11.57
2019-02-21T03:30:53.658Z,11.57
2019-02-21T03:33:21.760Z,11.55
2019-02-21T03:35:49.799Z,11.56
2019-02-21T03:38:18.069Z,11.56
2019-02-21T03:40:46.227Z,11.55
2019-02-21T03:43:14.228Z,11.55
2019-02-21T03:45:42.361Z,11.55
2019-02-21T03:48:10.484Z,11.55
2019-02-21T03:50:38.815Z,11.54
2019-02-21T03:53:06.867Z,11.53
2019-02-21T03:55:34.909Z,11.52
2019-02-21T03:58:02.995Z,11.50
2019-02-21T04:00:31.198Z,11.51
2019-02-21T04:02:59.329Z,11.50
2019-02-21T04:05:27.446Z,11.50
2019-02-21T04:07:55.905Z,11.49
2019-02-21T04:10:23.865Z,11.48
2019-02-21T04:12:51.958Z,11.51
2019-02-21T04:15:20.064Z,11.49
2019-02-21T04:17:48.109Z,11.48
2019-02-21T04:20:16.056Z,11.48
2019-02-21T04:22:44.111Z,11.46
2019-02-21T04:25:12.348Z,11.47
2019-02-21T04:27:40.493Z,11.46
2019-02-21T04:30:08.857Z,11.47
2019-02-21T04:32:36.905Z,11.45
2019-02-21T04:35:05.060Z,11.46
2019-02-21T04:37:33.120Z,11.47
2019-02-21T04:40:01.162Z,11.44
2019-02-21T04:42:29.209Z,11.43
2019-02-21T04:44:57.575Z,11.43
2019-02-21T04:47:25.683Z,11.44
2019-02-21T04:49:53.934Z,11.45
2019-02-21T04:52:22.182Z,11.44
2019-02-21T04:54:50.146Z,11.42
2019-02-21T04:57:18.194Z,11.43
2019-02-21T04:59:46.183Z,11.44
2019-02-21T05:02:14.222Z,11.43
2019-02-21T05:04:42.258Z,11.44
2019-02-21T05:07:10.229Z,11.43
2019-02-21T05:09:38.263Z,11.41
2019-02-21T05:12:06.266Z,11.42
2019-02-21T05:14:34.362Z,11.39
2019-02-21T05:17:02.417Z,11.42
2019-02-21T05:19:30.374Z,11.41
2019-02-21T05:21:58.427Z,11.43
2019-02-21T05:24:26.419Z,11.43
2019-02-21T05:26:58.375Z,11.44
2019-02-21T05:29:26.344Z,11.44
2019-02-21T05:32:01.914Z,11.47
2019-02-21T05:34:40.539Z,11.48
2019-02-21T05:37:31.482Z,11.50
2019-02-21T05:40:36.679Z,11.53
2019-02-21T05:43:31.379Z,11.55
2019-02-21T05:46:12.437Z,11.58
2019-02-21T05:48:59.502Z,11.59
2019-02-21T05:51:35.433Z,11.62
2019-02-21T05:54:12.749Z,11.65
2019-02-21T05:57:00.697Z,11.66
2019-02-21T06:00:01.287Z,11.70
2019-02-21T06:02:53.111Z,11.70
2019-02-21T06:05:29.358Z,11.72
2019-02-21T06:08:03.364Z,11.74
2019-02-21T06:11:05.942Z,11.76
2019-02-21T06:13:51.610Z,11.78
2019-02-21T06:16:53.777Z,11.79
2019-02-21T06:19:39.568Z,11.80
2019-02-21T06:22:26.065Z,11.82
2019-02-21T06:25:15.938Z,11.83
2019-02-21T06:28:18.024Z,11.84
2019-02-21T06:30:55.477Z,11.85
2019-02-21T06:33:23.475Z,11.86
2019-02-21T06:35:51.527Z,11.86
2019-02-21T06:38:19.518Z,11.88
2019-02-21T06:40:47.591Z,11.91
2019-02-21T06:43:15.674Z,11.95
2019-02-21T06:45:43.789Z,11.98
2019-02-21T06:48:11.926Z,12.00
2019-02-21T06:50:40.230Z,12.04
2019-02-21T06:53:08.490Z,12.06
2019-02-21T06:55:36.574Z,12.08
2019-02-21T06:58:04.589Z,12.09
2019-02-21T07:00:32.783Z,12.12
2019-02-21T07:03:00.900Z,12.13
2019-02-21T07:05:28.858Z,12.14
2019-02-21T07:07:56.838Z,12.16
2019-02-21T07:10:24.873Z,12.17
2019-02-21T07:12:52.932Z,12.18
2019-02-21T07:15:20.983Z,12.21
2019-02-21T07:17:49.800Z,12.22
2019-02-21T07:20:17.930Z,12.25
2019-02-21T07:22:45.972Z,12.29
2019-02-21T07:25:33.029Z,12.32
2019-02-21T07:28:11.330Z,12.34
2019-02-21T07:30:30.993Z,12.38
2019-02-21T07:32:58.961Z,12.40
2019-02-21T07:35:26.989Z,12.42
2019-02-21T07:37:55.095Z,12.48
2019-02-21T07:40:23.069Z,12.53
2019-02-21T07:42:51.091Z,12.53
2019-02-21T07:45:19.481Z,12.54
2019-02-21T07:47:47.761Z,12.58
2019-02-21T07:50:15.884Z,12.58
2019-02-21T07:52:44.062Z,12.59
2019-02-21T07:55:12.066Z,12.58
2019-02-21T07:57:40.054Z,12.59
2019-02-21T08:00:09.018Z,12.59
2019-02-21T08:02:37.085Z,12.59
2019-02-21T08:05:05.814Z,12.61
2019-02-21T08:07:34.118Z,12.61
2019-02-21T08:10:02.138Z,12.62
2019-02-21T08:12:30.216Z,12.69
2019-02-21T08:14:58.186Z,12.74
2019-02-21T08:17:27.995Z,12.77
2019-02-21T08:20:07.427Z,12.81
2019-02-21T08:22:26.180Z,12.86
2019-02-21T08:24:56.532Z,12.91
2019-02-21T08:27:24.274Z,13.08
2019-02-21T08:29:52.286Z,13.10
2019-02-21T08:32:24.210Z,13.07
2019-02-21T08:34:53.613Z,13.01
2019-02-21T08:37:25.190Z,12.97
2019-02-21T08:39:53.299Z,12.94
2019-02-21T08:42:21.288Z,12.90
2019-02-21T08:44:49.374Z,12.88
2019-02-21T08:47:17.409Z,12.87
2019-02-21T08:49:45.434Z,12.86
2019-02-21T08:52:13.486Z,12.87
2019-02-21T08:54:41.520Z,12.89
2019-02-21T08:57:09.842Z,12.92
2019-02-21T08:59:38.354Z,12.96
2019-02-21T09:02:06.403Z,13.01
2019-02-21T09:04:34.385Z,13.08
2019-02-21T09:07:02.526Z,13.17
2019-02-21T09:09:33.271Z,13.16
2019-02-21T09:12:01.446Z,13.20
2019-02-21T09:14:29.416Z,13.25
2019-02-21T09:16:57.569Z,13.28
2019-02-21T09:19:25.609Z,13.32
2019-02-21T09:21:53.774Z,13.33
2019-02-21T09:24:37.450Z,13.33
2019-02-21T09:26:51.576Z,13.33
2019-02-21T09:29:19.874Z,13.33
2019-02-21T09:31:47.923Z,13.34
2019-02-21T09:34:21.252Z,13.35
2019-02-21T09:36:45.665Z,13.39
2019-02-21T09:39:15.955Z,13.42
2019-02-21T09:41:43.651Z,13.35
2019-02-21T09:44:11.609Z,13.33
2019-02-21T09:46:40.659Z,13.28
2019-02-21T09:49:08.748Z,13.24
2019-02-21T09:51:36.919Z,13.25
2019-02-21T09:54:05.049Z,13.25
2019-02-21T09:56:33.213Z,13.22
2019-02-21T09:59:01.469Z,13.21
2019-02-21T10:01:29.606Z,13.20
2019-02-21T10:03:57.722Z,13.19
2019-02-21T10:06:25.711Z,13.20
2019-02-21T10:08:53.794Z,13.21
2019-02-21T10:11:21.787Z,13.23
2019-02-21T10:13:49.858Z,13.30
2019-02-21T10:16:17.838Z,13.37
2019-02-21T10:18:46.141Z,13.49
2019-02-21T10:21:14.181Z,13.62
2019-02-21T10:23:42.326Z,13.75
2019-02-21T10:26:10.633Z,13.84
2019-02-21T10:28:38.788Z,13.89
2019-02-21T10:31:06.952Z,13.94
2019-02-21T10:33:46.300Z,13.97
2019-02-21T10:36:05.358Z,13.98
2019-02-21T10:38:33.453Z,13.98
2019-02-21T10:41:01.414Z,14.00
2019-02-21T10:43:29.867Z,14.00
2019-02-21T10:45:57.890Z,14.01
2019-02-21T10:48:25.891Z,13.97
2019-02-21T10:50:53.942Z,13.93
2019-02-21T10:53:22.089Z,13.90
2019-02-21T10:55:50.106Z,13.90
2019-02-21T10:58:18.456Z,13.88
2019-02-21T11:00:46.445Z,13.87
2019-02-21T11:03:14.461Z,13.85
2019-02-21T11:05:42.542Z,13.82
2019-02-21T11:08:10.681Z,13.81
2019-02-21T11:10:38.811Z,13.81
2019-02-21T11:13:06.945Z,13.80
2019-02-21T11:15:34.990Z,13.80
2019-02-21T11:18:03.080Z,13.78
2019-02-21T11:20:31.123Z,13.77
2019-02-21T11:22:59.110Z,13.75
2019-02-21T11:25:27.090Z,13.73
2019-02-21T11:27:55.073Z,13.73
2019-02-21T11:30:23.103Z,13.72
2019-02-21T11:32:51.234Z,13.72
2019-02-21T11:35:19.531Z,13.72
2019-02-21T11:37:47.999Z,13.70
2019-02-21T11:40:16.075Z,13.69
2019-02-21T11:42:44.200Z,13.69
2019-02-21T11:45:13.209Z,13.68
2019-02-21T11:47:41.268Z,13.68
2019-02-21T11:50:10.043Z,13.67
2019-02-21T11:52:38.157Z,13.68
2019-02-21T11:55:08.832Z,13.68
2019-02-21T11:57:37.982Z,13.67
2019-02-21T12:00:07.621Z,13.68
2019-02-21T12:02:38.913Z,13.66
2019-02-21T12:05:17.341Z,13.68
2019-02-21T12:07:41.584Z,13.67
2019-02-21T12:10:10.056Z,13.68
2019-02-21T12:12:38.265Z,13.69
2019-02-21T12:15:07.175Z,13.69
2019-02-21T12:17:35.363Z,13.70
2019-02-21T12:20:03.430Z,13.69
2019-02-21T12:22:31.641Z,13.69
2019-02-21T12:24:59.730Z,13.71
2019-02-21T12:27:27.762Z,13.72
2019-02-21T12:29:55.745Z,13.73
2019-02-21T12:32:23.779Z,13.74
2019-02-21T12:34:51.914Z,13.78
2019-02-21T12:37:20.182Z,13.78
2019-02-21T12:39:48.314Z,13.77
2019-02-21T12:42:16.374Z,13.79
2019-02-21T12:44:44.495Z,13.80
2019-02-21T12:47:12.424Z,13.82
2019-02-21T12:49:40.498Z,13.82
2019-02-21T12:52:08.602Z,13.84
2019-02-21T12:57:10.281Z,13.84
2019-02-21T12:59:38.563Z,13.85
2019-02-21T13:02:06.549Z,13.85
2019-02-21T13:04:34.603Z,13.85
2019-02-21T13:07:02.630Z,13.86
2019-02-21T13:09:30.873Z,13.89
2019-02-21T13:11:58.969Z,13.90
2019-02-21T13:14:27.025Z,13.89
2019-02-21T13:16:55.249Z,13.90
2019-02-21T13:19:23.380Z,13.90
2019-02-21T13:21:51.585Z,13.90
2019-02-21T13:24:19.678Z,13.89
2019-02-21T13:26:47.633Z,13.88
2019-02-21T13:29:15.759Z,13.87
2019-02-21T13:31:43.739Z,13.86
2019-02-21T13:34:11.774Z,13.85
2019-02-21T13:36:39.996Z,13.85
2019-02-21T13:39:08.633Z,13.84
2019-02-21T13:41:36.666Z,13.84
2019-02-21T13:44:04.709Z,13.86
2019-02-21T13:46:37.367Z,13.87
2019-02-21T13:49:03.187Z,13.90
2019-02-21T13:51:31.515Z,13.91
2019-02-21T13:53:59.694Z,13.91
2019-02-21T13:56:27.751Z,13.93
2019-02-21T13:58:55.771Z,13.95
2019-02-21T14:01:23.783Z,13.97
2019-02-21T14:03:51.809Z,13.99
2019-02-21T14:06:19.806Z,13.98
2019-02-21T14:08:50.886Z,13.99
2019-02-21T14:11:18.965Z,13.99
2019-02-21T14:13:47.274Z,13.98
2019-02-21T14:16:15.274Z,13.98
2019-02-21T14:18:43.368Z,13.99
2019-02-21T14:21:11.470Z,13.98
2019-02-21T14:23:39.781Z,13.97
2019-02-21T14:26:11.194Z,13.99
2019-02-21T14:28:39.259Z,14.00
2019-02-21T14:31:07.573Z,14.02
2019-02-21T14:33:35.802Z,14.03
2019-02-21T14:36:12.825Z,14.03
2019-02-21T14:38:33.790Z,14.04
2019-02-21T14:41:01.950Z,14.04
2019-02-21T14:43:29.970Z,14.04
2019-02-21T14:45:58.071Z,14.03
2019-02-21T14:48:26.901Z,14.03
2019-02-21T14:50:55.103Z,14.03
2019-02-21T14:53:23.484Z,14.02
2019-02-21T14:55:51.842Z,14.02
2019-02-21T14:58:20.037Z,14.03
2019-02-21T15:00:48.067Z,14.06
2019-02-21T15:03:22.110Z,13.98
2019-02-21T15:05:46.090Z,13.93
2019-02-21T15:08:14.163Z,13.89
2019-02-21T15:10:42.146Z,13.89
2019-02-21T15:13:10.169Z,13.90
2019-02-21T15:15:38.306Z,13.90
2019-02-21T15:18:08.316Z,13.90
2019-02-21T15:20:37.222Z,13.91
2019-02-21T15:23:05.573Z,13.90
2019-02-21T15:25:33.559Z,13.91
2019-02-21T15:28:02.277Z,13.90
2019-02-21T15:30:30.398Z,13.89
2019-02-21T15:32:58.580Z,13.89
2019-02-21T15:35:26.637Z,13.89
2019-02-21T15:37:54.704Z,13.87
2019-02-21T15:40:22.660Z,13.87
2019-02-21T15:42:52.700Z,13.87
2019-02-21T15:45:23.290Z,13.86
2019-02-21T15:47:50.467Z,13.86
2019-02-21T15:50:20.046Z,13.87
2019-02-21T15:52:48.481Z,13.88
2019-02-21T15:55:16.458Z,13.89
2019-02-21T15:57:44.439Z,13.92
2019-02-21T16:00:13.536Z,13.93
2019-02-21T16:02:41.533Z,13.93
2019-02-21T16:05:09.570Z,13.93
2019-02-21T16:07:37.904Z,13.92
2019-02-21T16:10:07.018Z,13.92
2019-02-21T16:12:35.242Z,13.90
2019-02-21T16:15:03.493Z,13.90
2019-02-21T16:17:31.474Z,13.87
2019-02-21T16:19:59.534Z,13.87
2019-02-21T16:22:28.502Z,13.86
2019-02-21T16:24:56.851Z,13.84
2019-02-21T16:27:24.970Z,13.83
2019-02-21T16:29:53.191Z,13.81
2019-02-21T16:32:21.522Z,13.80
2019-02-21T16:34:49.549Z,13.79
2019-02-21T16:37:17.537Z,13.78
2019-02-21T16:39:45.531Z,13.76
2019-02-21T16:42:13.598Z,13.77
2019-02-21T16:44:41.640Z,13.75
2019-02-21T16:47:09.904Z,13.74
2019-02-21T16:49:38.089Z,13.72
2019-02-21T16:52:06.201Z,13.72
2019-02-21T16:54:34.529Z,13.71
2019-02-21T16:57:02.786Z,13.70
2019-02-21T16:59:30.932Z,13.68
2019-02-21T17:01:59.071Z,13.67
2019-02-21T17:04:27.588Z,13.66
2019-02-21T17:06:55.849Z,13.65
2019-02-21T17:09:24.197Z,13.64
2019-02-21T17:11:52.194Z,13.64
2019-02-21T17:14:20.323Z,13.63
2019-02-21T17:16:48.438Z,13.62
2019-02-21T17:19:16.762Z,13.62
2019-02-21T17:21:45.569Z,13.60
2019-02-21T17:24:13.814Z,13.58
2019-02-21T17:26:41.873Z,13.58
2019-02-21T17:29:09.881Z,13.57
2019-02-21T17:31:37.915Z,13.56
2019-02-21T17:34:05.969Z,13.55
2019-02-21T17:36:34.287Z,13.54
2019-02-21T17:39:02.405Z,13.54
2019-02-21T17:41:30.606Z,13.52
2019-02-21T17:43:58.634Z,13.52
2019-02-21T17:46:26.875Z,13.51
2019-02-21T17:48:54.879Z,13.50
2019-02-21T17:51:22.897Z,13.49
2019-02-21T17:53:52.654Z,13.48
2019-02-21T17:56:20.890Z,13.48
2019-02-21T17:58:48.928Z,13.47
2019-02-21T18:01:16.962Z,13.47
2019-02-21T18:03:44.964Z,13.46
2019-02-21T18:06:12.941Z,13.45
2019-02-21T18:08:40.982Z,13.44
2019-02-21T18:11:08.962Z,13.43
2019-02-21T18:13:37.017Z,13.42
2019-02-21T18:16:04.983Z,13.42
2019-02-21T18:18:33.170Z,13.42
2019-02-21T18:21:01.410Z,13.41
2019-02-21T18:23:29.541Z,13.40
2019-02-21T18:25:59.846Z,13.40
2019-02-21T18:28:28.090Z,13.39
2019-02-21T18:30:56.077Z,13.39
2019-02-21T18:33:24.180Z,13.37
2019-02-21T18:35:52.154Z,13.38
2019-02-21T18:38:20.204Z,13.37
2019-02-21T18:40:48.257Z,13.36
2019-02-21T18:43:16.308Z,13.35
2019-02-21T18:45:44.282Z,13.35
2019-02-21T18:48:12.317Z,13.34
2019-02-21T18:50:40.574Z,13.34
2019-02-21T18:53:08.535Z,13.33
2019-02-21T18:55:36.614Z,13.33
2019-02-21T18:58:04.748Z,13.30
2019-02-21T19:00:32.830Z,13.31
2019-02-21T19:03:01.036Z,13.30
2019-02-21T19:05:35.787Z,13.28
2019-02-21T19:08:05.151Z,13.29
2019-02-21T19:10:28.442Z,13.28
2019-02-21T19:12:56.482Z,13.28
2019-02-21T19:15:26.246Z,13.27
2019-02-21T19:17:54.322Z,13.26
2019-02-21T19:20:22.425Z,13.24
2019-02-21T19:22:50.492Z,13.25
2019-02-21T19:25:18.762Z,13.23
2019-02-21T19:27:46.875Z,13.23
2019-02-21T19:30:17.409Z,13.24
2019-02-21T19:32:45.515Z,13.21
2019-02-21T19:35:13.735Z,13.22
2019-02-21T19:37:41.902Z,13.21
2019-02-21T19:40:10.261Z,13.20
2019-02-21T19:42:38.225Z,13.18
2019-02-21T19:45:06.491Z,13.19
2019-02-21T19:47:34.588Z,13.18
2019-02-21T19:50:02.645Z,13.18
2019-02-21T19:52:30.939Z,13.16
2019-02-21T19:54:59.006Z,13.17
2019-02-21T19:57:27.213Z,13.16
2019-02-21T19:59:55.565Z,13.16
2019-02-21T20:02:23.530Z,13.15
2019-02-21T20:04:51.520Z,13.14
2019-02-21T20:07:19.671Z,13.13
2019-02-21T20:09:47.937Z,13.13
2019-02-21T20:12:16.151Z,13.14
2019-02-21T20:14:44.615Z,13.14
2019-02-21T20:17:12.679Z,13.11
2019-02-21T20:19:40.716Z,13.12
2019-02-21T20:22:08.969Z,13.11
2019-02-21T20:24:37.100Z,13.11
2019-02-21T20:27:05.266Z,13.09
2019-02-21T20:29:33.489Z,13.10
2019-02-21T20:32:01.730Z,13.09
2019-02-21T20:34:29.762Z,13.09
2019-02-21T20:36:57.850Z,13.08
2019-02-21T20:39:26.106Z,13.07
2019-02-21T20:41:54.237Z,13.07
2019-02-21T20:44:22.453Z,13.07
2019-02-21T20:46:50.891Z,13.07
2019-02-21T20:49:20.322Z,13.05
2019-02-21T20:51:48.752Z,13.05
2019-02-21T20:54:16.802Z,13.05
2019-02-21T20:56:44.958Z,13.04
2019-02-21T20:59:13.825Z,13.04
2019-02-21T21:01:41.900Z,13.04
2019-02-21T21:04:12.540Z,13.03
2019-02-21T21:06:41.073Z,13.02
2019-02-21T21:09:10.232Z,13.01
2019-02-21T21:11:38.301Z,13.02
2019-02-21T21:14:06.457Z,13.01
2019-02-21T21:16:34.858Z,13.01
2019-02-21T21:19:03.757Z,13.01
2019-02-21T21:21:32.023Z,13.00
2019-02-21T21:24:00.191Z,13.00
2019-02-21T21:26:28.700Z,13.00
2019-02-21T21:28:56.986Z,12.98
2019-02-21T21:31:25.262Z,12.99
2019-02-21T21:33:53.392Z,12.98
2019-02-21T21:36:21.395Z,12.98
2019-02-21T21:38:54.087Z,12.97
2019-02-21T21:41:19.067Z,12.96
2019-02-21T21:43:47.040Z,12.96
2019-02-21T21:46:15.003Z,12.96
2019-02-21T21:48:43.082Z,12.95
2019-02-21T21:51:11.139Z,12.95
2019-02-21T21:53:39.213Z,12.94
2019-02-21T21:56:07.450Z,12.94
2019-02-21T21:58:35.674Z,12.93
2019-02-21T22:01:03.985Z,12.94
2019-02-21T22:03:32.130Z,12.92
2019-02-21T22:06:00.192Z,12.93
2019-02-21T22:08:28.174Z,12.92
2019-02-21T22:10:56.137Z,12.92
2019-02-21T22:13:24.148Z,12.92
2019-02-21T22:15:52.312Z,12.91
2019-02-21T22:18:20.600Z,12.91
2019-02-21T22:20:48.762Z,12.91
2019-02-21T22:23:16.986Z,12.90
2019-02-21T22:25:45.132Z,12.90
2019-02-21T22:28:13.213Z,12.89
2019-02-21T22:30:41.218Z,12.89
2019-02-21T22:33:09.265Z,12.89
2019-02-21T22:35:37.298Z,12.88
2019-02-21T22:38:05.358Z,12.87
2019-02-21T22:40:33.398Z,12.87
2019-02-21T22:43:01.386Z,12.72
2019-02-21T22:45:29.414Z,12.87
2019-02-21T22:47:57.700Z,12.86
2019-02-21T22:50:26.910Z,12.86
2019-02-21T22:52:55.393Z,12.86
2019-02-21T22:55:23.366Z,12.85
2019-02-21T22:57:51.409Z,12.85
2019-02-21T23:00:42.448Z,12.83
2019-02-21T23:03:10.614Z,12.84
2019-02-21T23:05:57.804Z,12.84
2019-02-21T23:08:44.996Z,12.83
2019-02-21T23:11:12.959Z,12.82
2019-02-21T23:13:40.981Z,12.81
2019-02-21T23:16:09.253Z,12.81
2019-02-21T23:18:37.511Z,12.81
2019-02-21T23:21:05.560Z,12.80
2019-02-21T23:23:33.605Z,12.81
2019-02-21T23:26:01.615Z,12.81
2019-02-21T23:28:29.669Z,12.81
2019-02-21T23:30:57.709Z,12.80
2019-02-21T23:33:26.633Z,12.79
2019-02-21T23:35:54.753Z,12.79
2019-02-21T23:38:23.070Z,12.79
2019-02-21T23:40:51.106Z,12.77
2019-02-21T23:43:19.434Z,12.78
2019-02-21T23:45:47.549Z,12.78
2019-02-21T23:48:15.625Z,12.78
2019-02-21T23:50:43.759Z,12.77
2019-02-21T23:53:11.713Z,12.77
2019-02-21T23:55:39.708Z,12.76
2019-02-21T23:58:07.761Z,12.76
